createdAt,value
2018-05-07T00:00:46.689Z,74.60
2018-05-07T00:03:14.222Z,74.80
2018-05-07T00:05:42.536Z,74.90
2018-05-07T00:08:10.058Z,74.80
2018-05-07T00:10:38.373Z,75.10
2018-05-07T00:13:05.925Z,75.10
2018-05-07T00:15:33.647Z,75.20
2018-05-07T00:18:01.945Z,75.30
2018-05-07T00:20:29.476Z,75.30
2018-05-07T00:22:57.777Z,75.20
2018-05-07T00:25:25.341Z,75.00
2018-05-07T00:27:52.963Z,75.30
2018-05-07T00:30:21.486Z,75.90
2018-05-07T00:32:49.231Z,75.80
2018-05-07T00:35:16.777Z,75.80
2018-05-07T00:37:44.411Z,76.00
2018-05-07T00:40:11.989Z,75.90
2018-05-07T00:42:40.306Z,75.50
2018-05-07T00:45:07.837Z,75.50
2018-05-07T00:47:37.190Z,75.30
2018-05-07T00:50:04.703Z,75.60
2018-05-07T00:52:32.243Z,75.60
2018-05-07T00:55:21.251Z,75.90
2018-05-07T00:57:48.809Z,75.80
2018-05-07T01:00:16.332Z,76.00
2018-05-07T01:02:43.859Z,76.00
2018-05-07T01:05:12.177Z,76.50
2018-05-07T01:07:39.720Z,76.10
2018-05-07T01:10:07.244Z,76.30
2018-05-07T01:12:35.535Z,76.60
2018-05-07T01:15:03.848Z,77.30
2018-05-07T01:17:31.377Z,77.30
2018-05-07T01:19:59.681Z,77.40
2018-05-07T01:22:27.296Z,77.30
2018-05-07T01:24:55.600Z,77.10
2018-05-07T01:27:23.124Z,77.10
2018-05-07T01:29:51.423Z,77.60
2018-05-07T01:32:18.972Z,77.60
2018-05-07T01:34:47.253Z,77.70
2018-05-07T01:37:14.780Z,77.70
2018-05-07T01:39:42.308Z,77.60
2018-05-07T01:42:09.837Z,77.50
2018-05-07T01:44:37.356Z,77.30
2018-05-07T01:47:04.883Z,77.30
2018-05-07T01:49:32.564Z,77.80
2018-05-07T01:52:00.119Z,77.70
2018-05-07T01:54:27.648Z,77.70
2018-05-07T01:56:55.163Z,77.70
2018-05-07T01:59:23.466Z,78.10
2018-05-07T02:01:50.988Z,78.00
2018-05-07T02:04:19.309Z,78.00
2018-05-07T02:06:46.828Z,78.00
2018-05-07T02:09:15.120Z,78.50
2018-05-07T02:11:42.632Z,78.40
2018-05-07T02:14:10.165Z,78.60
2018-05-07T02:16:37.693Z,78.20
2018-05-07T02:19:05.211Z,78.30
2018-05-07T02:21:32.735Z,78.50
2018-05-07T02:24:00.256Z,78.60
2018-05-07T02:26:27.829Z,78.30
2018-05-07T02:28:55.351Z,78.30
2018-05-07T02:31:23.670Z,77.90
2018-05-07T02:33:51.211Z,77.90
2018-05-07T02:36:18.772Z,78.20
2018-05-07T02:38:46.296Z,78.20
2018-05-07T02:41:14.592Z,79.00
2018-05-07T02:43:42.150Z,78.60
2018-05-07T02:46:09.700Z,79.00
2018-05-07T02:48:37.981Z,79.10
2018-05-07T02:51:05.664Z,79.10
2018-05-07T02:53:33.223Z,79.30
2018-05-07T02:56:00.788Z,79.10
2018-05-07T02:58:28.322Z,79.00
2018-05-07T03:00:55.844Z,79.10
2018-05-07T03:03:23.378Z,79.20
2018-05-07T03:05:50.898Z,79.10
2018-05-07T03:08:18.466Z,78.90
2018-05-07T03:10:46.014Z,79.00
2018-05-07T03:13:13.540Z,79.30
2018-05-07T03:15:41.078Z,78.90
2018-05-07T03:18:08.620Z,78.90
2018-05-07T03:20:36.156Z,79.30
2018-05-07T03:23:03.679Z,79.10
2018-05-07T03:25:31.956Z,79.40
2018-05-07T03:28:00.248Z,79.60
2018-05-07T03:30:27.796Z,79.50
2018-05-07T03:32:56.079Z,79.60
2018-05-07T03:35:23.612Z,79.60
2018-05-07T03:37:51.892Z,80.50
2018-05-07T03:40:20.200Z,80.20
2018-05-07T03:42:47.727Z,80.10
2018-05-07T03:45:16.035Z,80.10
2018-05-07T03:47:43.571Z,80.10
2018-05-07T03:50:11.092Z,80.30
2018-05-07T03:52:38.691Z,80.30
2018-05-07T03:55:06.171Z,80.00
2018-05-07T03:57:33.718Z,79.90
2018-05-07T04:00:01.348Z,79.60
2018-05-07T04:02:29.642Z,80.10
2018-05-07T04:04:57.177Z,80.00
2018-05-07T04:07:25.474Z,80.10
2018-05-07T04:09:53.017Z,80.10
2018-05-07T04:12:21.323Z,80.00
2018-05-07T04:14:48.848Z,80.00
2018-05-07T04:17:29.076Z,80.40
2018-05-07T04:20:08.416Z,80.40
2018-05-07T04:22:47.852Z,80.50
2018-05-07T04:25:15.375Z,81.20
2018-05-07T04:27:42.902Z,80.80
2018-05-07T04:30:10.428Z,80.90
2018-05-07T04:32:37.936Z,80.60
2018-05-07T04:35:05.573Z,80.40
2018-05-07T04:37:33.149Z,80.40
2018-05-07T04:40:00.813Z,80.60
2018-05-07T04:42:28.423Z,80.90
2018-05-07T04:44:56.001Z,80.90
2018-05-07T04:47:23.537Z,80.60
2018-05-07T04:49:51.143Z,80.50
2018-05-07T04:52:18.702Z,80.60
2018-05-07T04:54:46.247Z,80.70
2018-05-07T04:57:13.796Z,80.40
2018-05-07T04:59:41.316Z,80.20
2018-05-07T05:02:08.888Z,80.80
2018-05-07T05:04:36.419Z,80.80
2018-05-07T05:07:04.192Z,81.70
2018-05-07T05:09:31.713Z,81.00
2018-05-07T05:11:59.403Z,81.50
2018-05-07T05:14:27.020Z,81.50
2018-05-07T05:16:54.587Z,81.60
2018-05-07T05:19:22.091Z,81.40
2018-05-07T05:21:49.614Z,81.30
2018-05-07T05:24:17.156Z,80.50
2018-05-07T05:26:44.692Z,80.50
2018-05-07T05:29:12.971Z,79.60
2018-05-07T05:31:40.515Z,79.60
2018-05-07T05:34:08.809Z,79.10
2018-05-07T05:36:36.334Z,79.00
2018-05-07T05:39:03.869Z,78.50
2018-05-07T05:41:31.401Z,79.00
2018-05-07T05:43:58.940Z,77.90
2018-05-07T05:46:26.471Z,77.60
2018-05-07T05:48:54.818Z,76.90
2018-05-07T05:51:22.344Z,76.80
2018-05-07T05:53:49.875Z,75.90
2018-05-07T05:56:18.205Z,74.50
2018-05-07T05:58:45.713Z,74.50
2018-05-07T06:01:13.996Z,73.20
2018-05-07T06:03:41.586Z,73.10
2018-05-07T06:06:09.089Z,72.50
2018-05-07T06:08:37.401Z,72.30
2018-05-07T06:11:04.930Z,72.30
2018-05-07T06:13:33.335Z,71.10
2018-05-07T06:16:00.871Z,71.10
2018-05-07T06:18:29.154Z,70.30
2018-05-07T06:20:56.675Z,70.20
2018-05-07T06:23:24.191Z,70.10
2018-05-07T06:25:51.727Z,69.60
2018-05-07T06:28:19.296Z,68.70
2018-05-07T06:30:46.822Z,68.50
2018-05-07T06:33:15.117Z,67.10
2018-05-07T06:35:42.681Z,67.00
2018-05-07T06:38:10.210Z,66.30
2018-05-07T06:40:38.486Z,65.30
2018-05-07T06:43:06.780Z,65.00
2018-05-07T06:45:34.291Z,64.80
2018-05-07T06:48:01.844Z,64.30
2018-05-07T06:50:29.368Z,64.50
2018-05-07T06:52:56.896Z,63.90
2018-05-07T06:55:25.177Z,61.00
2018-05-07T06:57:53.486Z,59.60
2018-05-07T07:00:21.010Z,59.60
2018-05-07T07:02:49.405Z,57.70
2018-05-07T07:05:16.845Z,57.70
2018-05-07T07:07:44.370Z,57.30
2018-05-07T07:10:12.674Z,56.60
2018-05-07T07:12:40.471Z,56.70
2018-05-07T07:15:07.990Z,55.30
2018-05-07T07:17:36.277Z,54.50
2018-05-07T07:20:03.849Z,55.20
2018-05-07T07:22:31.369Z,52.90
2018-05-07T07:24:59.669Z,54.10
2018-05-07T07:27:27.205Z,54.10
2018-05-07T07:29:56.637Z,54.20
2018-05-07T07:32:24.174Z,54.20
2018-05-07T07:34:52.448Z,53.80
2018-05-07T07:37:20.752Z,52.60
2018-05-07T07:39:48.291Z,52.60
2018-05-07T07:42:15.823Z,52.00
2018-05-07T07:44:44.110Z,51.80
2018-05-07T07:47:12.477Z,51.10
2018-05-07T07:49:39.961Z,51.10
2018-05-07T07:52:07.535Z,52.30
2018-05-07T07:54:35.060Z,51.10
2018-05-07T07:57:03.347Z,50.90
2018-05-07T07:59:30.879Z,50.30
2018-05-07T08:01:59.168Z,49.80
2018-05-07T08:04:27.474Z,49.70
2018-05-07T08:06:54.997Z,49.70
2018-05-07T08:09:23.314Z,49.30
2018-05-07T08:11:50.861Z,49.30
2018-05-07T08:14:18.387Z,49.50
2018-05-07T08:16:46.666Z,47.90
2018-05-07T08:19:14.953Z,46.80
2018-05-07T08:21:42.482Z,46.80
2018-05-07T08:24:10.039Z,46.90
2018-05-07T08:26:37.573Z,45.70
2018-05-07T08:29:05.113Z,45.20
2018-05-07T08:31:33.860Z,44.40
2018-05-07T08:34:02.172Z,43.70
2018-05-07T08:36:29.724Z,43.70
2018-05-07T08:38:57.248Z,43.70
2018-05-07T08:41:25.547Z,44.30
2018-05-07T08:43:53.051Z,44.30
2018-05-07T08:46:21.365Z,43.50
2018-05-07T08:48:49.656Z,43.00
2018-05-07T08:51:17.186Z,43.00
2018-05-07T08:53:45.488Z,42.60
2018-05-07T08:56:13.053Z,42.60
2018-05-07T08:58:40.566Z,42.90
2018-05-07T09:01:08.852Z,40.90
2018-05-07T09:03:37.184Z,41.60
2018-05-07T09:06:04.704Z,41.50
2018-05-07T09:08:32.271Z,41.40
2018-05-07T09:10:59.804Z,41.00
2018-05-07T09:13:28.108Z,41.60
2018-05-07T09:15:57.463Z,40.90
2018-05-07T09:18:25.774Z,41.60
2018-05-07T09:20:53.307Z,41.50
2018-05-07T09:23:21.620Z,39.50
2018-05-07T09:25:49.167Z,39.50
2018-05-07T09:28:16.714Z,39.20
2018-05-07T09:30:44.225Z,38.50
2018-05-07T09:33:13.257Z,38.50
2018-05-07T09:35:41.555Z,39.10
2018-05-07T09:38:09.164Z,39.10
2018-05-07T09:40:38.209Z,38.50
2018-05-07T09:43:05.840Z,38.50
2018-05-07T09:45:33.292Z,40.90
2018-05-07T09:48:01.608Z,38.50
2018-05-07T09:50:29.143Z,38.50
2018-05-07T09:52:56.680Z,38.40
2018-05-07T09:55:25.009Z,38.00
2018-05-07T09:58:05.284Z,37.90
2018-05-07T10:00:37.412Z,39.60
2018-05-07T10:03:04.942Z,38.70
2018-05-07T10:05:33.245Z,37.30
2018-05-07T10:08:00.787Z,38.00
2018-05-07T10:10:28.333Z,36.30
2018-05-07T10:12:56.630Z,35.60
2018-05-07T10:15:24.153Z,35.60
2018-05-07T10:17:52.478Z,36.90
2018-05-07T10:20:20.009Z,37.00
2018-05-07T10:22:47.549Z,35.40
2018-05-07T10:25:15.133Z,37.00
2018-05-07T10:27:42.681Z,36.40
2018-05-07T10:30:10.214Z,35.70
2018-05-07T10:32:38.509Z,34.60
2018-05-07T10:35:06.052Z,34.60
2018-05-07T10:37:34.424Z,35.40
2018-05-07T10:40:02.725Z,33.80
2018-05-07T10:42:30.255Z,33.30
2018-05-07T10:44:58.546Z,33.80
2018-05-07T10:47:26.835Z,33.20
2018-05-07T10:49:54.371Z,33.20
2018-05-07T10:52:22.677Z,32.90
2018-05-07T10:54:50.186Z,32.90
2018-05-07T10:57:17.708Z,33.40
2018-05-07T10:59:45.240Z,34.80
2018-05-07T11:02:12.809Z,33.90
2018-05-07T11:04:40.431Z,31.60
2018-05-07T11:07:08.757Z,31.80
2018-05-07T11:09:36.292Z,31.80
2018-05-07T11:12:03.869Z,34.10
2018-05-07T11:14:31.387Z,35.00
2018-05-07T11:16:59.677Z,34.10
2018-05-07T11:19:27.216Z,34.20
2018-05-07T11:21:55.513Z,35.70
2018-05-07T11:24:23.028Z,35.60
2018-05-07T11:26:50.560Z,34.60
2018-05-07T11:29:18.084Z,33.80
2018-05-07T11:31:45.595Z,33.20
2018-05-07T11:34:13.150Z,33.20
2018-05-07T11:36:40.697Z,32.20
2018-05-07T11:39:08.348Z,32.10
2018-05-07T11:41:35.805Z,32.90
2018-05-07T11:44:03.341Z,35.00
2018-05-07T11:46:30.917Z,32.70
2018-05-07T11:48:58.438Z,33.50
2018-05-07T11:51:25.967Z,34.40
2018-05-07T11:53:54.099Z,33.80
2018-05-07T11:56:21.629Z,32.90
2018-05-07T11:58:49.168Z,34.50
2018-05-07T12:01:17.491Z,33.10
2018-05-07T12:03:45.016Z,33.10
2018-05-07T12:06:12.544Z,33.20
2018-05-07T12:08:40.850Z,32.70
2018-05-07T12:11:08.380Z,32.60
2018-05-07T12:13:35.934Z,31.60
2018-05-07T12:16:03.516Z,33.60
2018-05-07T12:18:31.040Z,29.80
2018-05-07T12:20:58.774Z,31.80
2018-05-07T12:23:26.366Z,29.60
2018-05-07T12:25:53.881Z,31.20
2018-05-07T12:28:21.430Z,29.90
2018-05-07T12:30:48.963Z,28.90
2018-05-07T12:33:17.277Z,29.70
2018-05-07T12:35:44.838Z,29.70
2018-05-07T12:38:12.360Z,29.70
2018-05-07T12:40:39.906Z,29.80
2018-05-07T12:43:08.200Z,29.90
2018-05-07T12:45:35.737Z,29.90
2018-05-07T12:48:04.027Z,29.60
2018-05-07T12:50:31.556Z,29.60
2018-05-07T12:52:59.108Z,29.20
2018-05-07T12:55:28.507Z,31.20
2018-05-07T12:57:56.123Z,30.30
2018-05-07T13:00:23.707Z,30.40
2018-05-07T13:02:51.225Z,29.80
2018-05-07T13:05:18.780Z,31.00
2018-05-07T13:07:46.301Z,30.80
2018-05-07T13:10:13.921Z,28.90
2018-05-07T13:12:41.489Z,29.60
2018-05-07T13:15:09.036Z,30.30
2018-05-07T13:17:36.605Z,30.00
2018-05-07T13:20:04.158Z,30.60
2018-05-07T13:22:31.694Z,30.70
2018-05-07T13:24:59.207Z,29.10
2018-05-07T13:27:26.753Z,29.10
2018-05-07T13:29:54.338Z,30.00
2018-05-07T13:32:21.837Z,28.40
2018-05-07T13:34:49.353Z,28.30
2018-05-07T13:37:17.865Z,29.10
2018-05-07T13:39:45.397Z,29.10
2018-05-07T13:42:13.693Z,29.10
2018-05-07T13:44:41.224Z,29.10
2018-05-07T13:47:09.532Z,29.00
2018-05-07T13:49:37.066Z,29.00
2018-05-07T13:52:05.343Z,27.90
2018-05-07T13:54:32.876Z,27.90
2018-05-07T13:57:00.400Z,29.70
2018-05-07T13:59:28.005Z,28.20
2018-05-07T14:01:56.289Z,27.50
2018-05-07T14:04:24.593Z,26.30
2018-05-07T14:06:52.121Z,26.30
2018-05-07T14:09:19.653Z,26.50
2018-05-07T14:11:47.952Z,26.20
2018-05-07T14:14:16.259Z,25.20
2018-05-07T14:16:43.822Z,25.20
2018-05-07T14:19:12.097Z,25.90
2018-05-07T14:21:39.648Z,25.90
2018-05-07T14:24:07.210Z,27.50
2018-05-07T14:26:34.757Z,26.90
2018-05-07T14:29:02.299Z,27.80
2018-05-07T14:31:29.872Z,26.10
2018-05-07T14:33:57.396Z,26.20
2018-05-07T14:36:25.686Z,26.00
2018-05-07T14:38:53.260Z,26.00
2018-05-07T14:41:20.785Z,25.50
2018-05-07T14:43:49.117Z,26.00
2018-05-07T14:46:16.722Z,26.00
2018-05-07T14:48:44.224Z,25.00
2018-05-07T14:51:11.781Z,23.60
2018-05-07T14:53:39.296Z,23.70
2018-05-07T14:56:07.592Z,19.70
2018-05-07T14:58:35.212Z,19.70
2018-05-07T15:01:02.826Z,19.00
2018-05-07T15:03:30.352Z,19.60
2018-05-07T15:05:58.681Z,19.20
2018-05-07T15:08:26.223Z,19.30
2018-05-07T15:10:53.749Z,19.20
2018-05-07T15:13:21.306Z,18.50
2018-05-07T15:15:48.862Z,18.40
2018-05-07T15:18:17.159Z,16.40
2018-05-07T15:20:44.695Z,16.30
2018-05-07T15:23:13.029Z,17.30
2018-05-07T15:25:40.627Z,17.20
2018-05-07T15:28:08.927Z,18.00
2018-05-07T15:30:36.480Z,18.00
2018-05-07T15:33:04.008Z,16.60
2018-05-07T15:35:31.557Z,16.90
2018-05-07T15:37:59.074Z,16.60
2018-05-07T15:40:26.624Z,16.90
2018-05-07T15:42:54.172Z,17.00
2018-05-07T15:45:21.698Z,15.60
2018-05-07T15:47:49.245Z,15.40
2018-05-07T15:50:16.786Z,15.20
2018-05-07T15:52:44.319Z,14.90
2018-05-07T15:55:11.838Z,15.10
2018-05-07T15:57:40.175Z,15.10
2018-05-07T16:00:07.728Z,15.10
2018-05-07T16:02:35.319Z,15.40
2018-05-07T16:05:02.836Z,15.10
2018-05-07T16:07:30.372Z,15.30
2018-05-07T16:09:57.919Z,15.70
2018-05-07T16:12:25.468Z,16.20
2018-05-07T16:14:53.797Z,16.80
2018-05-07T16:17:21.346Z,16.70
2018-05-07T16:19:48.898Z,18.20
2018-05-07T16:22:17.600Z,16.60
2018-05-07T16:24:45.094Z,16.60
2018-05-07T16:27:13.384Z,16.60
2018-05-07T16:29:40.905Z,16.50
2018-05-07T16:32:08.448Z,16.80
2018-05-07T16:34:36.154Z,17.20
2018-05-07T16:37:06.445Z,17.80
2018-05-07T16:39:34.035Z,17.70
2018-05-07T16:42:04.227Z,17.70
2018-05-07T16:44:31.817Z,17.50
2018-05-07T16:47:00.133Z,18.00
2018-05-07T16:49:27.667Z,17.60
2018-05-07T16:51:55.432Z,18.10
2018-05-07T16:54:23.009Z,18.20
2018-05-07T16:56:51.268Z,18.20
2018-05-07T16:59:18.842Z,18.20
2018-05-07T17:01:46.377Z,17.70
2018-05-07T17:04:13.909Z,18.60
2018-05-07T17:06:42.223Z,19.20
2018-05-07T17:09:09.757Z,19.10
2018-05-07T17:11:37.289Z,18.80
2018-05-07T17:14:05.600Z,17.60
2018-05-07T17:16:33.136Z,17.60
2018-05-07T17:19:01.480Z,17.50
2018-05-07T17:21:29.049Z,17.50
2018-05-07T17:23:56.629Z,16.80
2018-05-07T17:26:24.926Z,19.50
2018-05-07T17:28:52.453Z,19.60
2018-05-07T17:31:20.756Z,22.20
2018-05-07T17:33:48.406Z,22.10
2018-05-07T17:36:15.916Z,22.20
2018-05-07T17:38:43.516Z,23.60
2018-05-07T17:41:11.020Z,25.10
2018-05-07T17:43:38.546Z,25.30
2018-05-07T17:46:17.960Z,26.30
2018-05-07T17:48:56.199Z,26.70
2018-05-07T17:51:23.785Z,26.70
2018-05-07T17:53:51.362Z,27.90
2018-05-07T17:56:18.867Z,30.80
2018-05-07T17:58:46.400Z,31.50
2018-05-07T18:01:14.748Z,34.20
2018-05-07T18:03:42.295Z,34.20
2018-05-07T18:06:09.836Z,35.40
2018-05-07T18:08:37.380Z,36.30
2018-05-07T18:11:04.920Z,36.50
2018-05-07T18:13:32.487Z,35.80
2018-05-07T18:16:00.010Z,38.20
2018-05-07T18:18:28.305Z,43.40
2018-05-07T18:20:55.855Z,43.30
2018-05-07T18:23:24.174Z,47.30
2018-05-07T18:25:51.767Z,47.20
2018-05-07T18:28:19.325Z,49.20
2018-05-07T18:30:46.878Z,50.00
2018-05-07T18:33:14.476Z,52.00
2018-05-07T18:35:42.005Z,51.70
2018-05-07T18:38:10.297Z,51.50
2018-05-07T18:40:38.587Z,51.80
2018-05-07T18:43:06.152Z,51.70
2018-05-07T18:45:33.682Z,52.40
2018-05-07T18:48:02.001Z,52.70
2018-05-07T18:50:29.563Z,52.60
2018-05-07T18:52:57.130Z,52.70
2018-05-07T18:55:24.682Z,53.90
2018-05-07T18:57:52.261Z,54.20
2018-05-07T19:00:19.794Z,54.50
2018-05-07T19:02:47.380Z,54.60
2018-05-07T19:05:14.916Z,54.90
2018-05-07T19:07:42.450Z,55.80
2018-05-07T19:10:10.032Z,56.60
2018-05-07T19:12:37.636Z,57.00
2018-05-07T19:15:05.972Z,56.40
2018-05-07T19:17:33.505Z,56.30
2018-05-07T19:20:01.038Z,55.90
2018-05-07T19:22:29.350Z,55.50
2018-05-07T19:24:56.944Z,55.50
2018-05-07T19:27:24.489Z,54.80
2018-05-07T19:29:52.126Z,56.00
2018-05-07T19:32:19.612Z,56.60
2018-05-07T19:34:47.213Z,55.80
2018-05-07T19:37:14.817Z,56.30
2018-05-07T19:39:42.399Z,55.70
2018-05-07T19:42:09.929Z,56.00
2018-05-07T19:44:41.020Z,57.30
2018-05-07T19:47:08.744Z,57.80
2018-05-07T19:49:36.333Z,57.90
2018-05-07T19:52:04.674Z,58.60
2018-05-07T19:54:33.307Z,58.60
2018-05-07T19:57:00.922Z,59.10
2018-05-07T19:59:28.748Z,59.50
2018-05-07T20:01:56.307Z,59.90
2018-05-07T20:04:23.985Z,59.90
2018-05-07T20:06:51.592Z,61.00
2018-05-07T20:09:19.109Z,61.40
2018-05-07T20:11:46.749Z,61.40
2018-05-07T20:14:14.420Z,61.00
2018-05-07T20:16:41.890Z,61.50
2018-05-07T20:19:09.419Z,62.20
2018-05-07T20:21:36.953Z,62.80
2018-05-07T20:24:04.497Z,63.40
2018-05-07T20:26:32.866Z,64.40
2018-05-07T20:29:00.456Z,64.30
2018-05-07T20:31:27.980Z,64.40
2018-05-07T20:33:55.529Z,64.70
2018-05-07T20:36:23.060Z,65.40
2018-05-07T20:38:50.619Z,65.90
2018-05-07T20:41:18.131Z,66.00
2018-05-07T20:43:45.674Z,66.30
2018-05-07T20:46:13.984Z,67.10
2018-05-07T20:48:41.537Z,67.00
2018-05-07T20:51:09.113Z,67.40
2018-05-07T20:53:36.663Z,67.90
2018-05-07T20:56:04.260Z,68.20
2018-05-07T20:58:31.796Z,68.60
2018-05-07T21:00:59.332Z,68.80
2018-05-07T21:03:26.932Z,69.10
2018-05-07T21:05:55.944Z,69.60
2018-05-07T21:08:24.276Z,69.60
2018-05-07T21:10:51.808Z,69.60
2018-05-07T21:13:19.337Z,69.60
2018-05-07T21:15:47.644Z,69.50
2018-05-07T21:18:15.171Z,69.50
2018-05-07T21:20:43.473Z,69.50
2018-05-07T21:23:11.000Z,69.50
2018-05-07T21:25:39.287Z,69.70
2018-05-07T21:28:07.682Z,69.70
2018-05-07T21:30:35.201Z,69.70
2018-05-07T21:33:02.795Z,70.30
2018-05-07T21:35:30.336Z,71.90
2018-05-07T21:37:58.641Z,72.10
2018-05-07T21:40:26.168Z,72.10
2018-05-07T21:42:54.465Z,72.20
2018-05-07T21:45:21.969Z,72.10
2018-05-07T21:47:49.481Z,72.80
2018-05-07T21:50:17.060Z,73.10
2018-05-07T21:52:44.568Z,73.30
2018-05-07T21:55:12.886Z,73.60
2018-05-07T21:57:40.424Z,73.50
2018-05-07T22:00:07.939Z,73.80
2018-05-07T22:02:35.472Z,73.90
2018-05-07T22:05:02.997Z,74.00
2018-05-07T22:07:30.547Z,74.30
2018-05-07T22:09:58.113Z,74.40
2018-05-07T22:12:25.691Z,74.60
2018-05-07T22:14:53.944Z,74.60
2018-05-07T22:17:21.767Z,74.60
2018-05-07T22:19:49.300Z,74.70
2018-05-07T22:22:16.933Z,74.60
2018-05-07T22:24:44.444Z,74.50
2018-05-07T22:27:12.004Z,74.30
2018-05-07T22:29:40.312Z,74.30
2018-05-07T22:32:07.838Z,74.30
2018-05-07T22:34:36.134Z,74.80
2018-05-07T22:37:04.406Z,75.20
2018-05-07T22:39:32.689Z,74.90
2018-05-07T22:42:00.275Z,74.80
2018-05-07T22:44:27.803Z,75.00
2018-05-07T22:46:55.316Z,75.50
2018-05-07T22:49:22.852Z,75.60
2018-05-07T22:51:50.385Z,75.70
2018-05-07T22:54:17.892Z,76.00
2018-05-07T22:56:45.421Z,76.10
2018-05-07T22:59:12.938Z,76.30
2018-05-07T23:01:40.473Z,76.40
2018-05-07T23:04:09.432Z,76.50
2018-05-07T23:06:36.989Z,76.90
2018-05-07T23:09:04.495Z,77.00
2018-05-07T23:11:32.788Z,76.90
2018-05-07T23:14:00.307Z,76.80
2018-05-07T23:16:27.920Z,76.90
2018-05-07T23:18:55.470Z,76.60
2018-05-07T23:21:23.048Z,76.60
2018-05-07T23:23:50.569Z,76.70
2018-05-07T23:26:18.854Z,76.70
2018-05-07T23:28:46.429Z,76.70
2018-05-07T23:31:13.997Z,76.80
2018-05-07T23:33:41.519Z,77.40
2018-05-07T23:36:09.797Z,77.40
2018-05-07T23:38:37.337Z,77.40
2018-05-07T23:41:05.621Z,77.30
2018-05-07T23:43:33.927Z,77.60
2018-05-07T23:46:01.460Z,77.60
2018-05-07T23:48:28.997Z,77.70
2018-05-07T23:50:57.275Z,78.20
2018-05-07T23:53:25.547Z,78.30
2018-05-07T23:55:53.832Z,78.60
2018-05-07T23:58:22.149Z,78.10
